Flight Track Log - Related Links

Times and Time Zones

All times are in EDT time to prevent confusion due to time zone crossing. See the SWA1435 flight status page for this flight to view local times or setup timezone preferences in your user account.

Time Position Orientation Groundspeed Altitude Reporting Facility
EDT Latitude Longitude Course Direction KTS MPH feet Rate Location/Type
Mon 09:25:19 AM 38.7303 -90.2778 126° Southeast 150 173 1,500  Level FAA TRACON SMA TRACON (SMA)
Mon 09:25:39 AM 38.7200 -90.2594 126° Southeast 163 188 2,500 2,100 Climbing FAA TRACON SMA TRACON (SMA)
Mon 09:25:59 AM 38.7106 -90.2422 125° Southeast 183 211 2,900 1,650 Climbing FAA TRACON SMA TRACON (SMA)
Mon 09:26:19 AM 38.6967 -90.2283 142° Southeast 209 241 3,600 1,902 Climbing FAA TRACON SMA TRACON (SMA)
Mon 09:26:40 AM 38.6736 -90.2358 194° South 239 275 4,200 2,850 Climbing FAA TRACON SMA TRACON (SMA)
Mon 09:26:59 AM 38.6608 -90.2558 231° Southwest 241 277 5,500 2,769 Climbing FAA TRACON SMA TRACON (SMA)
Mon 09:27:19 AM 38.6500 -90.2781 238° Southwest 237 273 6,000 750 Climbing FAA TRACON SMA TRACON (SMA)
Mon 09:27:39 AM 38.6361 -90.3072 239° Southwest 248 285 6,000  Level FAA TRACON SMA TRACON (SMA)
Mon 09:27:59 AM 38.6242 -90.3328 239° Southwest 265 305 6,000 300 Level FAA TRACON SMA TRACON (SMA)
Mon 09:28:19 AM 38.6119 -90.3589 239° Southwest 279 321 6,200 3,450 Climbing FAA TRACON SMA TRACON (SMA)
Mon 09:28:39 AM 38.5969 -90.3911 239° Southwest 275 316 8,300 5,550 Climbing FAA TRACON SMA TRACON (SMA)
Mon 09:28:59 AM 38.5864 -90.4156 241° Southwest 260 299 9,900 4,500 Climbing FAA TRACON SMA TRACON (SMA)
Mon 09:29:19 AM 38.5761 -90.4386 240° Southwest 246 283 11,300 3,900 Climbing FAA TRACON SMA TRACON (SMA)
Mon 09:29:39 AM 38.5633 -90.4667 240° Southwest 239 275 12,500 2,700 Climbing FAA TRACON SMA TRACON (SMA)
Mon 09:29:59 AM 38.5525 -90.4911 240° Southwest 251 289 13,100 2,550 Climbing FAA TRACON SMA TRACON (SMA)
Mon 09:30:19 AM 38.5408 -90.5167 240° Southwest 265 305 14,200 3,300 Climbing FAA TRACON SMA TRACON (SMA)
Mon 09:30:39 AM 38.5264 -90.5475 239° Southwest 266 306 15,300 3,150 Climbing FAA TRACON SMA TRACON (SMA)
Mon 09:30:59 AM 38.5147 -90.5722 239° Southwest 265 305 16,300 2,700 Climbing FAA TRACON SMA TRACON (SMA)
Mon 09:31:19 AM 38.5025 -90.5969 238° Southwest 267 307 17,100 2,400 Climbing FAA TRACON SMA TRACON (SMA)
Mon 09:31:39 AM 38.4864 -90.6289 237° Southwest 275 316 17,900 2,400 Climbing FAA TRACON SMA TRACON (SMA)
Mon 09:31:59 AM 38.4736 -90.6558 239° Southwest 286 329 18,700 2,100 Climbing FAA TRACON SMA TRACON (SMA)
Mon 09:32:19 AM 38.4597 -90.6831 237° Southwest 294 338 19,300 2,100 Climbing FAA TRACON SMA TRACON (SMA)
Mon 09:32:39 AM 38.4433 -90.7186 240° Southwest 304 350 20,100 2,100 Climbing FAA TRACON SMA TRACON (SMA)
Mon 09:32:59 AM 38.4294 -90.7475 238° Southwest 308 354 20,700 1,950 Climbing FAA TRACON SMA TRACON (SMA)
Mon 09:33:19 AM 38.4158 -90.7778 240° Southwest 316 364 21,400 2,250 Climbing FAA TRACON SMA TRACON (SMA)
Mon 09:33:39 AM 38.3981 -90.8158 239° Southwest 324 373 22,200 1,950 Climbing FAA TRACON SMA TRACON (SMA)
Mon 09:33:59 AM 38.3883 -90.8489 249° West 327 376 22,700 1,350 Climbing FAA TRACON SMA TRACON (SMA)
Mon 09:34:19 AM 38.3844 -90.8861 262° West 337 388 23,100 1,500 Climbing FAA TRACON SMA TRACON (SMA)
Mon 09:34:39 AM 38.3789 -90.9333 261° West 347 399 23,700 1,500 Climbing FAA TRACON SMA TRACON (SMA)
Mon 09:34:59 AM 38.3761 -90.9739 265° West 358 412 24,100 1,200 Climbing FAA TRACON SMA TRACON (SMA)
Mon 09:35:19 AM 38.3714 -91.0133 261° West 366 421 24,500 1,650 Climbing FAA TRACON SMA TRACON (SMA)
Mon 09:35:39 AM 38.3714 -91.0642 270° West 375 432 25,200 2,100 Climbing FAA TRACON SMA TRACON (SMA)
Mon 09:35:59 AM 38.3769 -91.1056 280° West 380 437 25,900 2,100 Climbing FAA TRACON SMA TRACON (SMA)
Mon 09:36:19 AM 38.3822 -91.1467 279° West 381 438 26,600 2,250 Climbing FAA TRACON SMA TRACON (SMA)
Mon 09:36:39 AM 38.3892 -91.1972 280° West 379 436 27,400 2,250 Climbing FAA TRACON SMA TRACON (SMA)
Mon 09:36:59 AM 38.3942 -91.2375 279° West 375 432 28,100 2,100 Climbing FAA TRACON SMA TRACON (SMA)
Mon 09:37:19 AM 38.3994 -91.2778 280° West 374 430 28,800 2,250 Climbing FAA TRACON SMA TRACON (SMA)
Mon 09:37:39 AM 38.4067 -91.3275 281° West 371 427 29,600 2,100 Climbing FAA TRACON SMA TRACON (SMA)
Mon 09:37:59 AM 38.4111 -91.3661 278° West 364 419 30,200 1,650 Climbing FAA TRACON SMA TRACON (SMA)
Mon 09:38:19 AM 38.4211 -91.4047 288° West 366 421 30,700 1,650 Climbing FAA TRACON SMA TRACON (SMA)
Mon 09:38:39 AM 38.4444 -91.4467 305° West 373 429 31,300 1,500 Climbing FAA TRACON SMA TRACON (SMA)
Mon 09:38:59 AM 38.4700 -91.4747 319° Northwest 384 442 31,700 1,350 Climbing FAA TRACON SMA TRACON (SMA)
Mon 09:39:19 AM 38.4953 -91.5022 320° Northwest 389 448 32,200 1,500 Climbing FAA TRACON SMA TRACON (SMA)
Mon 09:39:39 AM 38.5292 -91.5375 321° Northwest 394 453 32,700 1,500 Climbing FAA TRACON SMA TRACON (SMA)
Mon 09:39:59 AM 38.5533 -91.5650 318° Northwest 392 451 33,200 1,650 Climbing FAA TRACON SMA TRACON (SMA)
Mon 09:40:19 AM 38.5803 -91.5931 321° Northwest 394 453 33,800 787 Climbing FAA TRACON SMA TRACON (SMA)
Mon 09:41:00 AM 38.6256 -91.6931 300° West 388 447 34,000 118 Climbing Kansas City Center
Mon 09:42:01 AM 38.7094 -91.7858 319° Northwest 393 452 34,000  Level Kansas City Center
Mon 09:43:02 AM 38.7917 -91.8803 318° Northwest 396 456 34,000  Level Kansas City Center
Mon 09:44:06 AM 38.8911 -91.9903 319° Northwest 394 453 34,000  Level Kansas City Center
Mon 09:45:06 AM 38.9714 -92.0825 318° Northwest 390 449 34,000  Level Kansas City Center
Mon 09:46:06 AM 39.0539 -92.1728 320° Northwest 389 448 34,000  Level Kansas City Center
Mon 09:47:10 AM 39.1344 -92.2636 319° Northwest 386 444 34,000  Level Kansas City Center
Mon 09:48:11 AM 39.2147 -92.3544 319° Northwest 385 443 34,000  Level Kansas City Center
Mon 09:49:12 AM 39.2878 -92.4369 319° Northwest 384 442 34,000  Level Kansas City Center
Mon 09:50:16 AM 39.3828 -92.5442 319° Northwest 381 438 34,000  Level Kansas City Center
Mon 09:51:16 AM 39.4617 -92.6339 319° Northwest 381 438 34,000  Level Kansas City Center
Mon 09:52:17 AM 39.5403 -92.7253 318° Northwest 380 437 34,000  Level Kansas City Center
Mon 09:53:21 AM 39.6189 -92.8147 319° Northwest 378 435 34,000  Level Kansas City Center
Mon 09:54:22 AM 39.6967 -92.9067 318° Northwest 379 436 34,000  Level Kansas City Center
Mon 09:55:23 AM 39.7756 -92.9972 319° Northwest 379 436 34,000  Level Kansas City Center
Mon 09:56:24 AM 39.8711 -93.1094 318° Northwest 385 443 34,000  Level Kansas City Center
Mon 09:57:28 AM 39.9494 -93.2011 318° Northwest 383 441 34,000 -290 Level Kansas City Center
Mon 09:58:28 AM 40.0275 -93.2919 318° Northwest 379 436 33,400 -488 Descending Kansas City Center
Mon 09:59:31 AM 40.1089 -93.3897 317° Northwest 387 445 33,000 -194 Descending Kansas City Center
Mon 10:00:32 AM 40.1906 -93.4853 318° Northwest 394 453 33,000  Level Kansas City Center
Mon 10:01:36 AM 40.2692 -93.5789 318° Northwest 389 448 33,000  Level Kansas City Center
Mon 10:02:36 AM 40.3661 -93.6919 318° Northwest 388 447 33,000  Level Kansas City Center
Mon 10:03:14 AM 40.4114 -93.7494 316° Northwest 387 445 33,000  Level Minneapolis Center
Mon 10:04:16 AM 40.4911 -93.8442 318° Northwest 387 445 33,000 -145 Level Minneapolis Center
Mon 10:05:18 AM 40.5700 -93.9383 318° Northwest 386 444 32,700 -634 Descending Minneapolis Center
Mon 10:06:19 AM 40.6103 -94.0550 294° West 368 423 31,700 -927 Descending Minneapolis Center
Mon 10:07:21 AM 40.6286 -94.1789 281° West 354 407 30,800 -878 Descending Minneapolis Center
Mon 10:08:22 AM 40.6492 -94.3067 282° West 357 411 29,900 -1,073 Descending Minneapolis Center
Mon 10:09:24 AM 40.6753 -94.4614 283° West 363 418 28,600 -1,854 Descending Minneapolis Center
Mon 10:10:25 AM 40.6978 -94.5947 283° West 358 412 26,100 -2,390 Descending Minneapolis Center
Mon 10:11:27 AM 40.7169 -94.7139 282° West 340 391 23,700 -2,226 Descending Minneapolis Center
Mon 10:12:29 AM 40.7350 -94.8272 282° West 323 372 21,500 -2,146 Descending Minneapolis Center
Mon 10:13:30 AM 40.7525 -94.9356 282° West 309 356 19,300 -2,460 Descending Minneapolis Center
Mon 10:14:09 AM 40.7789 -95.0094 295° West 298 343 17,400 -2,613 Descending Minneapolis Center
Mon 10:14:32 AM 40.7708 -95.0444 253° West 304 350 16,600 -2,418 Descending Minneapolis Center
Mon 10:15:16 AM 40.8164 -95.1231 307° West 329 379 14,700 -2,361 Descending Minneapolis Center
Mon 10:15:33 AM 40.8142 -95.1475 263° West 321 369 14,200 -2,400 Descending Minneapolis Center
Mon 10:16:16 AM 40.8717 -95.2183 317° Northwest 330 380 12,300 -2,226 Descending Minneapolis Center
Mon 10:16:35 AM 40.8700 -95.2411 264° West 326 375 11,900 -2,262 Descending Minneapolis Center
Mon 10:17:17 AM 40.9219 -95.3083 316° Northwest 311 358 10,000 -1,935 Descending Minneapolis Center
Mon 10:17:37 AM 40.9336 -95.3453 293° West 309 356 9,900 -1,180 Descending Minneapolis Center
Mon 10:18:18 AM 40.9719 -95.3933 317° Northwest 250 288 8,800 -1,574 Descending Minneapolis Center
Mon 10:18:38 AM 40.9775 -95.4161 288° West 271 312 8,300 -2,000 Descending Minneapolis Center
Mon 10:19:24 AM 41.0153 -95.4711 312° West 240 276 6,600 -1,742 Descending Minneapolis Center
Mon 10:19:40 AM 41.0194 -95.4875 289° West 255 293 6,500 -689 Descending Minneapolis Center
Mon 10:20:25 AM 41.0558 -95.5436 311° West 245 282 5,900 -590 Descending Minneapolis Center
Mon 10:20:41 AM 41.0589 -95.5606 283° West 248 285 5,900 -500 Level Minneapolis Center
Mon 10:21:25 AM 41.0844 -95.6258 297° West 246 283 5,400 -774 Descending Minneapolis Center
Mon 10:21:43 AM 41.0883 -95.6419 288° West 245 282 5,100 -896 Descending Minneapolis Center
Mon 10:22:32 AM 41.1178 -95.7131 299° West 233 268 4,400 -436 Descending Minneapolis Center
Mon 10:23:33 AM 41.1603 -95.7550 323° Northwest 173 199 4,300 -446 Descending Minneapolis Center
Mon 10:24:33 AM 41.1983 -95.7922 324° Northwest 161 185 3,500 -720 Descending Minneapolis Center
Mon 10:24:48 AM 41.2000 -95.7922 360° North 181 208 3,400 -935 Descending Minneapolis Center
Mon 10:25:50 AM 41.2428 -95.8333 324° Northwest 167 192 2,300 -897 Descending Minneapolis Center
Mon 10:26:35 AM 41.2656 -95.8592 320° Northwest 130 150 1,800 -689 Descending Minneapolis Center
Mon 10:26:51 AM 41.2722 -95.8617 344° North 152 175 1,600 -615 Descending Minneapolis Center
Mon 10:27:53 AM 41.2989 -95.8867 325° Northwest 135 155 1,000 -581 Descending Minneapolis Center
Mon 10:29:00 AM 41.3000 -95.8833 312° West  Level FlightAware Approximate

Login

Don't have an account? Register now (free) for customized features, flight alerts, and more!